Database: COMPET-N - COOP - 3PL - 4PL - CNDOOM

WAD: Doom | Doom 2 | TNT | Plutonia | AV | HR | Scythe | MM | MM2 | Requiem | CE
Category: speed | nmare | max | nm100s | tyson | pacifist | fast | respawn | nomo | misc | built | all
Highscore: ALL | IWAD | PWAD | Country | Continent

< Previous map       Next map >
Remove: wad | map | category | player | allMAP03
MapPlayerTimeDateFilenameCommentsDL
MAP03: Power ControlVincent Catalaa55.002001-01-10ev03-055.zip - 211
MAP03: Power ControlVaclav Kunes1:02.002001-01-03ev03-102.zip - 121
MAP03: Power ControlSelim Benabdelkhalek1:06.002000-03-16ev03-106.zip - 95
MAP03: Power ControlSelim Benabdelkhalek1:23.002000-03-10ev03-123.zip - 101
MAP03: Power ControlVincent Catalaa1:33.002000-02-25ev03-133.zip - 110
MAP03: Power ControlAndrew Bassett6:45.001999-12-08ev03-645.zip - 158
MAP03: Power ControlJim Leonard1:18.002002-09-09tn03-118.zip - 217
MAP03: Power ControlVincent Catalaa1:29.002001-08-20tn03-129.zip - 93
MAP03: Power ControlJim Leonard1:51.002001-08-16tn03-151.zip - 164
MAP03: Power ControlLaszlo Vecsei1:53.002001-08-05tn03-153.zip - 98
MAP03: Power ControlLaszlo Vecsei1:58.002001-08-04tn03-158.zip - 100
MAP03: Power ControlJim Leonard2:22.002001-08-01tn03-222.zip - 171
MAP03: Power ControlJim Leonard2:36.002005-02-04ev03-236.zip - 196
MAP03: Power ControlRadek Pecka2:41.002001-04-01ev03-241.zip - 83
MAP03: Power ControlYashar Garibzadeh2:43.002001-03-16ev03-243.zip - 83
MAP03: Power ControlRadek Pecka2:45.002001-02-23ev03-245.zip - 78
MAP03: Power ControlYashar Garibzadeh2:48.002001-02-18ev03-248.zip - 91
MAP03: Power ControlRadek Pecka2:55.002001-02-16ev03-255.zip - 87
MAP03: Power ControlYashar Garibzadeh3:05.002001-02-01ev03-305.zip - 84
MAP03: Power ControlRadek Pecka3:15.002000-12-10ev03-315.zip - 75
MAP03: Power ControlJohn Keniry3:27.002000-10-29ev03-327.zip - 45
MAP03: Power ControlMaximiliano Di Dio3:48.002000-10-28ev03-348.zip - 69
MAP03: Power ControlJohn Keniry3:51.002000-10-21ev03-351.zip - 46
MAP03: Power ControlAnthony Soto4:31.002000-10-14ev03-431.zip - 74
MAP03: Power ControlPeo Sjoblom4:34.001997-01-19ev03-434.zip - 60
MAP03: Power ControlKai-Uwe Humpert6:25.001996-10-18ev03-625.zip - 60
MAP03: Power ControlJim Leonard2:05.002002-09-08es03-205.zip - 172
MAP03: Power ControlLaszlo Vecsei2:21.002002-02-07es03-221.zip - 124
MAP03: Power ControlJim Leonard3:47.002001-11-24es03-347.zip - 146
MAP03: Power ControlJ4rio 5:26.002012-07-23et03-526.zip - 219
MAP03: Power ControlJim Leonard6:03.002012-07-21et03-603.zip - 166
MAP03: Power ControlJ4rio 7:25.002012-06-15et03-725.zip - 259
MAP03: Power ControlJim Leonard9:45.002002-02-22et03-945.zip - 169
MAP03: Power ControlRadek Pecka11:13.002001-06-21et031113.zip - 91
MAP03: Power ControlJim Leonard14:43.002001-06-13et031443.zip - 150
MAP03: Power ControlDrew DeVore1:41.002003-05-11ep03-141.zip - 194
MAP03: Power ControlJustin Baliao3:48.462017-05-13ef03-348.zip - 306
MAP03: Power ControlRadek Pecka4:02.002003-02-26ef03-402.zip - 127
MAP03: Power ControlJim Leonard5:07.002002-03-12ef03-507.zip - 146
MAP03: Power ControlPeo Sjoblom5:53.001997-01-13tnt03-gm.zip - 72
MAP03: Power ControlRadek Pecka2:56.002003-02-26er03-256.zip - 188
MAP03: Power ControlJim Leonard3:24.002002-01-28er03-324.zip - 150
Remove: wad | map | category | player | all